sensor_id;sensor_type;location;lat;lon;timestamp;P1;durP1;ratioP1;P2;durP2;ratioP2
80334;SDS011;69653;52.674;13.574;2023-05-21T00:00:26;14.57;;;10.60;;
80334;SDS011;69653;52.674;13.574;2023-05-21T00:02:51;13.40;;;9.70;;
80334;SDS011;69653;52.674;13.574;2023-05-21T00:05:16;17.20;;;11.77;;
80334;SDS011;69653;52.674;13.574;2023-05-21T00:07:42;15.95;;;9.95;;
80334;SDS011;69653;52.674;13.574;2023-05-21T00:10:08;13.57;;;9.45;;
80334;SDS011;69653;52.674;13.574;2023-05-21T00:12:34;15.68;;;9.98;;
80334;SDS011;69653;52.674;13.574;2023-05-21T00:14:59;14.18;;;9.68;;
80334;SDS011;69653;52.674;13.574;2023-05-21T00:17:25;13.63;;;9.77;;
80334;SDS011;69653;52.674;13.574;2023-05-21T00:19:52;15.80;;;11.02;;
80334;SDS011;69653;52.674;13.574;2023-05-21T00:22:18;14.52;;;9.73;;
80334;SDS011;69653;52.674;13.574;2023-05-21T00:24:44;15.30;;;10.68;;
80334;SDS011;69653;52.674;13.574;2023-05-21T00:27:10;16.63;;;10.80;;
80334;SDS011;69653;52.674;13.574;2023-05-21T00:29:36;15.85;;;10.27;;
80334;SDS011;69653;52.674;13.574;2023-05-21T00:32:01;16.43;;;10.63;;
80334;SDS011;69653;52.674;13.574;2023-05-21T00:34:26;17.00;;;10.20;;
80334;SDS011;69653;52.674;13.574;2023-05-21T00:36:53;15.35;;;11.45;;
80334;SDS011;69653;52.674;13.574;2023-05-21T00:39:19;17.45;;;10.88;;
80334;SDS011;69653;52.674;13.574;2023-05-21T00:41:44;15.02;;;10.73;;
80334;SDS011;69653;52.674;13.574;2023-05-21T00:44:10;18.20;;;11.43;;
80334;SDS011;69653;52.674;13.574;2023-05-21T00:46:38;16.20;;;11.32;;
80334;SDS011;69653;52.674;13.574;2023-05-21T00:49:03;16.77;;;10.68;;
80334;SDS011;69653;52.674;13.574;2023-05-21T00:51:29;17.27;;;11.25;;
80334;SDS011;69653;52.674;13.574;2023-05-21T00:53:55;16.33;;;11.57;;
80334;SDS011;69653;52.674;13.574;2023-05-21T00:56:22;19.30;;;12.13;;
80334;SDS011;69653;52.674;13.574;2023-05-21T00:58:48;18.63;;;11.90;;
80334;SDS011;69653;52.674;13.574;2023-05-21T01:01:16;16.90;;;10.70;;
80334;SDS011;69653;52.674;13.574;2023-05-21T01:03:42;16.40;;;11.50;;
80334;SDS011;69653;52.674;13.574;2023-05-21T01:06:08;20.60;;;11.45;;
80334;SDS011;69653;52.674;13.574;2023-05-21T01:08:34;17.95;;;11.18;;
80334;SDS011;69653;52.674;13.574;2023-05-21T01:11:01;17.85;;;12.30;;
80334;SDS011;69653;52.674;13.574;2023-05-21T01:13:28;18.95;;;12.10;;
80334;SDS011;69653;52.674;13.574;2023-05-21T01:15:55;20.08;;;12.68;;
80334;SDS011;69653;52.674;13.574;2023-05-21T01:18:22;17.08;;;11.80;;
80334;SDS011;69653;52.674;13.574;2023-05-21T01:20:48;20.17;;;12.80;;
80334;SDS011;69653;52.674;13.574;2023-05-21T01:23:18;18.00;;;12.18;;
80334;SDS011;69653;52.674;13.574;2023-05-21T01:25:45;20.20;;;13.23;;
80334;SDS011;69653;52.674;13.574;2023-05-21T01:28:11;18.00;;;11.82;;
80334;SDS011;69653;52.674;13.574;2023-05-21T01:30:38;21.00;;;13.25;;
80334;SDS011;69653;52.674;13.574;2023-05-21T01:33:16;21.13;;;12.95;;
80334;SDS011;69653;52.674;13.574;2023-05-21T01:35:46;20.13;;;13.38;;
80334;SDS011;69653;52.674;13.574;2023-05-21T01:38:19;19.48;;;13.13;;
80334;SDS011;69653;52.674;13.574;2023-05-21T01:43:28;22.83;;;14.57;;
80334;SDS011;69653;52.674;13.574;2023-05-21T01:45:55;21.17;;;14.68;;
80334;SDS011;69653;52.674;13.574;2023-05-21T01:48:23;20.20;;;13.93;;
80334;SDS011;69653;52.674;13.574;2023-05-21T01:50:51;20.63;;;12.57;;
80334;SDS011;69653;52.674;13.574;2023-05-21T01:53:19;20.17;;;14.30;;
80334;SDS011;69653;52.674;13.574;2023-05-21T01:55:45;19.83;;;14.10;;
80334;SDS011;69653;52.674;13.574;2023-05-21T01:58:11;19.63;;;13.52;;
80334;SDS011;69653;52.674;13.574;2023-05-21T02:00:36;19.90;;;13.77;;
80334;SDS011;69653;52.674;13.574;2023-05-21T02:03:03;18.75;;;13.57;;
80334;SDS011;69653;52.674;13.574;2023-05-21T02:05:29;19.95;;;14.10;;
80334;SDS011;69653;52.674;13.574;2023-05-21T02:07:54;18.83;;;13.00;;
80334;SDS011;69653;52.674;13.574;2023-05-21T02:10:20;19.50;;;14.15;;
80334;SDS011;69653;52.674;13.574;2023-05-21T02:12:46;22.20;;;13.77;;
80334;SDS011;69653;52.674;13.574;2023-05-21T02:15:11;16.73;;;12.97;;
80334;SDS011;69653;52.674;13.574;2023-05-21T02:17:38;22.85;;;14.45;;
80334;SDS011;69653;52.674;13.574;2023-05-21T02:20:04;17.88;;;13.45;;
80334;SDS011;69653;52.674;13.574;2023-05-21T02:22:40;24.92;;;14.32;;
80334;SDS011;69653;52.674;13.574;2023-05-21T02:25:06;22.10;;;14.88;;
80334;SDS011;69653;52.674;13.574;2023-05-21T02:27:34;23.05;;;15.35;;
80334;SDS011;69653;52.674;13.574;2023-05-21T02:30:00;22.63;;;15.57;;
80334;SDS011;69653;52.674;13.574;2023-05-21T02:32:27;22.98;;;13.98;;
80334;SDS011;69653;52.674;13.574;2023-05-21T02:34:52;22.90;;;15.13;;
80334;SDS011;69653;52.674;13.574;2023-05-21T02:37:18;24.10;;;15.33;;
80334;SDS011;69653;52.674;13.574;2023-05-21T02:39:44;22.77;;;16.30;;
80334;SDS011;69653;52.674;13.574;2023-05-21T02:42:09;21.88;;;15.18;;
80334;SDS011;69653;52.674;13.574;2023-05-21T02:44:35;22.00;;;15.50;;
80334;SDS011;69653;52.674;13.574;2023-05-21T02:47:00;23.87;;;15.73;;
80334;SDS011;69653;52.674;13.574;2023-05-21T02:49:25;26.57;;;16.67;;
80334;SDS011;69653;52.674;13.574;2023-05-21T02:51:50;21.17;;;15.30;;
80334;SDS011;69653;52.674;13.574;2023-05-21T02:54:16;25.67;;;15.20;;
80334;SDS011;69653;52.674;13.574;2023-05-21T02:56:41;21.17;;;14.47;;
80334;SDS011;69653;52.674;13.574;2023-05-21T02:59:06;22.97;;;15.33;;
80334;SDS011;69653;52.674;13.574;2023-05-21T03:01:32;23.57;;;15.73;;
80334;SDS011;69653;52.674;13.574;2023-05-21T03:03:57;24.57;;;16.17;;
80334;SDS011;69653;52.674;13.574;2023-05-21T03:06:22;22.67;;;15.73;;
80334;SDS011;69653;52.674;13.574;2023-05-21T03:08:47;23.10;;;15.93;;
80334;SDS011;69653;52.674;13.574;2023-05-21T03:11:13;22.97;;;16.60;;
80334;SDS011;69653;52.674;13.574;2023-05-21T03:13:38;22.02;;;14.45;;
80334;SDS011;69653;52.674;13.574;2023-05-21T03:16:04;22.98;;;15.35;;
80334;SDS011;69653;52.674;13.574;2023-05-21T03:18:30;24.00;;;14.90;;
80334;SDS011;69653;52.674;13.574;2023-05-21T03:20:55;23.83;;;15.37;;
80334;SDS011;69653;52.674;13.574;2023-05-21T03:23:22;21.00;;;14.93;;
80334;SDS011;69653;52.674;13.574;2023-05-21T03:25:48;21.70;;;15.10;;
80334;SDS011;69653;52.674;13.574;2023-05-21T03:28:14;21.30;;;15.05;;
80334;SDS011;69653;52.674;13.574;2023-05-21T03:30:41;21.65;;;15.23;;
80334;SDS011;69653;52.674;13.574;2023-05-21T03:33:10;21.35;;;15.07;;
80334;SDS011;69653;52.674;13.574;2023-05-21T03:35:36;22.33;;;15.93;;
80334;SDS011;69653;52.674;13.574;2023-05-21T03:38:01;23.13;;;15.50;;
80334;SDS011;69653;52.674;13.574;2023-05-21T03:40:27;25.07;;;15.27;;
80334;SDS011;69653;52.674;13.574;2023-05-21T03:42:52;23.57;;;14.80;;
80334;SDS011;69653;52.674;13.574;2023-05-21T03:45:17;22.47;;;14.27;;
80334;SDS011;69653;52.674;13.574;2023-05-21T03:47:42;21.53;;;15.17;;
80334;SDS011;69653;52.674;13.574;2023-05-21T03:50:08;21.97;;;14.40;;
80334;SDS011;69653;52.674;13.574;2023-05-21T03:52:34;22.42;;;15.20;;
80334;SDS011;69653;52.674;13.574;2023-05-21T03:55:00;22.48;;;14.82;;
80334;SDS011;69653;52.674;13.574;2023-05-21T03:57:25;24.40;;;14.97;;
80334;SDS011;69653;52.674;13.574;2023-05-21T03:59:50;19.53;;;13.90;;
80334;SDS011;69653;52.674;13.574;2023-05-21T04:02:16;20.27;;;14.20;;
80334;SDS011;69653;52.674;13.574;2023-05-21T04:04:41;20.70;;;15.03;;
80334;SDS011;69653;52.674;13.574;2023-05-21T04:07:08;23.17;;;16.17;;
80334;SDS011;69653;52.674;13.574;2023-05-21T04:09:38;22.02;;;14.23;;
80334;SDS011;69653;52.674;13.574;2023-05-21T04:12:03;20.20;;;14.60;;
80334;SDS011;69653;52.674;13.574;2023-05-21T04:14:29;23.98;;;14.45;;
80334;SDS011;69653;52.674;13.574;2023-05-21T04:16:54;20.80;;;13.97;;
80334;SDS011;69653;52.674;13.574;2023-05-21T04:19:20;20.25;;;13.98;;
80334;SDS011;69653;52.674;13.574;2023-05-21T04:21:45;19.90;;;14.70;;
80334;SDS011;69653;52.674;13.574;2023-05-21T04:24:11;21.92;;;14.90;;
80334;SDS011;69653;52.674;13.574;2023-05-21T04:26:36;20.03;;;14.43;;
80334;SDS011;69653;52.674;13.574;2023-05-21T04:29:02;21.10;;;13.90;;
80334;SDS011;69653;52.674;13.574;2023-05-21T04:31:28;20.77;;;13.93;;
80334;SDS011;69653;52.674;13.574;2023-05-21T04:33:55;19.40;;;13.43;;
80334;SDS011;69653;52.674;13.574;2023-05-21T04:36:20;22.08;;;13.63;;
80334;SDS011;69653;52.674;13.574;2023-05-21T04:38:46;18.90;;;13.50;;
80334;SDS011;69653;52.674;13.574;2023-05-21T04:41:12;18.85;;;13.13;;
80334;SDS011;69653;52.674;13.574;2023-05-21T04:43:38;19.08;;;12.77;;
80334;SDS011;69653;52.674;13.574;2023-05-21T04:46:07;18.40;;;12.68;;
80334;SDS011;69653;52.674;13.574;2023-05-21T04:48:33;18.83;;;12.82;;
80334;SDS011;69653;52.674;13.574;2023-05-21T04:50:58;17.15;;;12.95;;
80334;SDS011;69653;52.674;13.574;2023-05-21T04:53:24;17.47;;;12.60;;
80334;SDS011;69653;52.674;13.574;2023-05-21T04:55:49;17.80;;;12.70;;
80334;SDS011;69653;52.674;13.574;2023-05-21T04:58:15;18.83;;;12.95;;
80334;SDS011;69653;52.674;13.574;2023-05-21T05:00:42;19.02;;;12.63;;
80334;SDS011;69653;52.674;13.574;2023-05-21T05:03:10;18.58;;;13.40;;
80334;SDS011;69653;52.674;13.574;2023-05-21T05:05:35;20.73;;;12.85;;
80334;SDS011;69653;52.674;13.574;2023-05-21T05:08:00;17.97;;;13.43;;
80334;SDS011;69653;52.674;13.574;2023-05-21T05:10:26;17.75;;;12.57;;
80334;SDS011;69653;52.674;13.574;2023-05-21T05:12:51;19.20;;;13.20;;
80334;SDS011;69653;52.674;13.574;2023-05-21T05:15:17;18.40;;;12.70;;
80334;SDS011;69653;52.674;13.574;2023-05-21T05:17:42;18.67;;;13.63;;
80334;SDS011;69653;52.674;13.574;2023-05-21T05:20:08;17.30;;;12.63;;
80334;SDS011;69653;52.674;13.574;2023-05-21T05:22:35;17.77;;;12.35;;
80334;SDS011;69653;52.674;13.574;2023-05-21T05:25:00;19.20;;;14.37;;
80334;SDS011;69653;52.674;13.574;2023-05-21T05:27:25;18.88;;;13.20;;
80334;SDS011;69653;52.674;13.574;2023-05-21T05:29:51;19.93;;;12.50;;
80334;SDS011;69653;52.674;13.574;2023-05-21T05:32:16;17.60;;;12.77;;
80334;SDS011;69653;52.674;13.574;2023-05-21T05:34:42;16.33;;;11.80;;
80334;SDS011;69653;52.674;13.574;2023-05-21T05:37:10;15.10;;;11.95;;
80334;SDS011;69653;52.674;13.574;2023-05-21T05:39:36;16.05;;;11.88;;
80334;SDS011;69653;52.674;13.574;2023-05-21T05:42:01;17.50;;;12.60;;
80334;SDS011;69653;52.674;13.574;2023-05-21T05:44:27;19.00;;;13.00;;
80334;SDS011;69653;52.674;13.574;2023-05-21T05:46:52;17.10;;;12.00;;
80334;SDS011;69653;52.674;13.574;2023-05-21T05:49:17;20.03;;;13.07;;
80334;SDS011;69653;52.674;13.574;2023-05-21T05:51:43;18.10;;;12.53;;
80334;SDS011;69653;52.674;13.574;2023-05-21T05:54:08;18.83;;;11.75;;
80334;SDS011;69653;52.674;13.574;2023-05-21T05:56:34;16.07;;;11.43;;
80334;SDS011;69653;52.674;13.574;2023-05-21T05:58:59;15.67;;;12.13;;
80334;SDS011;69653;52.674;13.574;2023-05-21T06:01:24;18.98;;;12.35;;
80334;SDS011;69653;52.674;13.574;2023-05-21T06:03:50;18.17;;;12.73;;
80334;SDS011;69653;52.674;13.574;2023-05-21T06:06:16;14.55;;;11.77;;
80334;SDS011;69653;52.674;13.574;2023-05-21T06:08:41;15.93;;;11.55;;
80334;SDS011;69653;52.674;13.574;2023-05-21T06:11:06;14.73;;;12.02;;
80334;SDS011;69653;52.674;13.574;2023-05-21T06:13:32;16.65;;;11.48;;
80334;SDS011;69653;52.674;13.574;2023-05-21T06:15:57;15.68;;;11.60;;
80334;SDS011;69653;52.674;13.574;2023-05-21T06:18:23;14.43;;;10.60;;
80334;SDS011;69653;52.674;13.574;2023-05-21T06:20:48;15.47;;;11.40;;
80334;SDS011;69653;52.674;13.574;2023-05-21T06:23:13;20.20;;;11.00;;
80334;SDS011;69653;52.674;13.574;2023-05-21T06:25:39;15.47;;;10.77;;
80334;SDS011;69653;52.674;13.574;2023-05-21T06:28:04;16.15;;;10.73;;
80334;SDS011;69653;52.674;13.574;2023-05-21T06:30:29;14.80;;;10.73;;
80334;SDS011;69653;52.674;13.574;2023-05-21T06:32:55;16.13;;;10.43;;
80334;SDS011;69653;52.674;13.574;2023-05-21T06:35:21;16.33;;;11.02;;
80334;SDS011;69653;52.674;13.574;2023-05-21T06:37:46;15.73;;;10.88;;
80334;SDS011;69653;52.674;13.574;2023-05-21T06:40:12;14.15;;;10.27;;
80334;SDS011;69653;52.674;13.574;2023-05-21T06:42:38;14.73;;;10.38;;
80334;SDS011;69653;52.674;13.574;2023-05-21T06:45:03;13.07;;;9.80;;
80334;SDS011;69653;52.674;13.574;2023-05-21T06:47:29;17.30;;;10.10;;
80334;SDS011;69653;52.674;13.574;2023-05-21T06:49:55;13.27;;;10.35;;
80334;SDS011;69653;52.674;13.574;2023-05-21T06:52:20;14.87;;;9.80;;
80334;SDS011;69653;52.674;13.574;2023-05-21T06:54:45;13.17;;;10.10;;
80334;SDS011;69653;52.674;13.574;2023-05-21T06:57:12;14.70;;;10.03;;
80334;SDS011;69653;52.674;13.574;2023-05-21T06:59:39;15.68;;;9.73;;
80334;SDS011;69653;52.674;13.574;2023-05-21T07:02:04;12.27;;;9.53;;
80334;SDS011;69653;52.674;13.574;2023-05-21T07:04:30;13.82;;;9.38;;
80334;SDS011;69653;52.674;13.574;2023-05-21T07:06:56;14.88;;;9.73;;
80334;SDS011;69653;52.674;13.574;2023-05-21T07:09:21;13.90;;;9.52;;
80334;SDS011;69653;52.674;13.574;2023-05-21T07:11:46;11.90;;;9.25;;
80334;SDS011;69653;52.674;13.574;2023-05-21T07:14:12;11.50;;;8.53;;
80334;SDS011;69653;52.674;13.574;2023-05-21T07:16:37;14.70;;;9.53;;
80334;SDS011;69653;52.674;13.574;2023-05-21T07:19:03;13.68;;;9.18;;
80334;SDS011;69653;52.674;13.574;2023-05-21T07:21:28;14.52;;;8.60;;
80334;SDS011;69653;52.674;13.574;2023-05-21T07:23:54;13.47;;;8.70;;
80334;SDS011;69653;52.674;13.574;2023-05-21T07:26:19;12.90;;;9.40;;
80334;SDS011;69653;52.674;13.574;2023-05-21T07:28:45;11.63;;;8.57;;
80334;SDS011;69653;52.674;13.574;2023-05-21T07:31:10;12.57;;;8.77;;
80334;SDS011;69653;52.674;13.574;2023-05-21T07:33:38;13.23;;;8.60;;
80334;SDS011;69653;52.674;13.574;2023-05-21T07:36:04;10.97;;;8.97;;
80334;SDS011;69653;52.674;13.574;2023-05-21T07:38:30;12.88;;;8.10;;
80334;SDS011;69653;52.674;13.574;2023-05-21T07:40:55;10.85;;;7.97;;
80334;SDS011;69653;52.674;13.574;2023-05-21T07:43:21;11.60;;;7.97;;
80334;SDS011;69653;52.674;13.574;2023-05-21T07:45:46;11.53;;;8.03;;
80334;SDS011;69653;52.674;13.574;2023-05-21T07:48:11;11.47;;;7.93;;
80334;SDS011;69653;52.674;13.574;2023-05-21T07:50:38;10.13;;;7.82;;
80334;SDS011;69653;52.674;13.574;2023-05-21T07:53:03;11.50;;;8.37;;
80334;SDS011;69653;52.674;13.574;2023-05-21T07:55:28;11.83;;;8.37;;
80334;SDS011;69653;52.674;13.574;2023-05-21T07:57:54;12.23;;;7.50;;
80334;SDS011;69653;52.674;13.574;2023-05-21T08:00:21;10.90;;;7.63;;
80334;SDS011;69653;52.674;13.574;2023-05-21T08:02:47;12.07;;;8.10;;
80334;SDS011;69653;52.674;13.574;2023-05-21T08:05:13;11.50;;;7.83;;
80334;SDS011;69653;52.674;13.574;2023-05-21T08:07:40;11.13;;;7.72;;
80334;SDS011;69653;52.674;13.574;2023-05-21T08:10:06;12.60;;;7.93;;
80334;SDS011;69653;52.674;13.574;2023-05-21T08:12:32;10.27;;;7.57;;
80334;SDS011;69653;52.674;13.574;2023-05-21T08:14:58;12.95;;;8.20;;
80334;SDS011;69653;52.674;13.574;2023-05-21T08:17:23;10.23;;;7.87;;
80334;SDS011;69653;52.674;13.574;2023-05-21T08:19:49;12.27;;;8.03;;
80334;SDS011;69653;52.674;13.574;2023-05-21T08:22:14;10.53;;;8.07;;
80334;SDS011;69653;52.674;13.574;2023-05-21T08:24:39;12.02;;;7.85;;
80334;SDS011;69653;52.674;13.574;2023-05-21T08:27:05;11.45;;;8.05;;
80334;SDS011;69653;52.674;13.574;2023-05-21T08:29:31;10.15;;;7.03;;
80334;SDS011;69653;52.674;13.574;2023-05-21T08:31:57;11.35;;;7.15;;
80334;SDS011;69653;52.674;13.574;2023-05-21T08:34:22;9.60;;;7.10;;
80334;SDS011;69653;52.674;13.574;2023-05-21T08:36:48;12.90;;;6.82;;
80334;SDS011;69653;52.674;13.574;2023-05-21T08:39:13;8.90;;;6.47;;
80334;SDS011;69653;52.674;13.574;2023-05-21T08:41:39;12.65;;;7.85;;
80334;SDS011;69653;52.674;13.574;2023-05-21T08:44:07;9.52;;;6.25;;
80334;SDS011;69653;52.674;13.574;2023-05-21T08:46:36;9.25;;;7.00;;
80334;SDS011;69653;52.674;13.574;2023-05-21T08:49:04;11.05;;;6.85;;
80334;SDS011;69653;52.674;13.574;2023-05-21T08:51:35;9.48;;;7.03;;
80334;SDS011;69653;52.674;13.574;2023-05-21T08:54:02;10.38;;;6.38;;
80334;SDS011;69653;52.674;13.574;2023-05-21T08:56:30;10.57;;;6.47;;
80334;SDS011;69653;52.674;13.574;2023-05-21T08:58:56;8.63;;;6.00;;
80334;SDS011;69653;52.674;13.574;2023-05-21T09:01:23;9.25;;;6.35;;
80334;SDS011;69653;52.674;13.574;2023-05-21T09:03:50;8.57;;;5.72;;
80334;SDS011;69653;52.674;13.574;2023-05-21T09:06:16;9.07;;;6.40;;
80334;SDS011;69653;52.674;13.574;2023-05-21T09:08:42;9.30;;;6.32;;
80334;SDS011;69653;52.674;13.574;2023-05-21T09:11:09;9.10;;;6.15;;
80334;SDS011;69653;52.674;13.574;2023-05-21T09:13:35;9.05;;;5.90;;
80334;SDS011;69653;52.674;13.574;2023-05-21T09:16:02;8.82;;;6.07;;
80334;SDS011;69653;52.674;13.574;2023-05-21T09:18:28;8.07;;;5.57;;
80334;SDS011;69653;52.674;13.574;2023-05-21T09:20:53;7.47;;;5.57;;
80334;SDS011;69653;52.674;13.574;2023-05-21T09:23:20;8.40;;;5.85;;
80334;SDS011;69653;52.674;13.574;2023-05-21T09:25:46;7.78;;;5.72;;
80334;SDS011;69653;52.674;13.574;2023-05-21T09:28:15;9.23;;;5.68;;
80334;SDS011;69653;52.674;13.574;2023-05-21T09:33:27;9.18;;;6.15;;
80334;SDS011;69653;52.674;13.574;2023-05-21T09:35:55;10.52;;;6.15;;
80334;SDS011;69653;52.674;13.574;2023-05-21T09:38:21;6.80;;;5.32;;
80334;SDS011;69653;52.674;13.574;2023-05-21T09:40:47;7.60;;;5.93;;
80334;SDS011;69653;52.674;13.574;2023-05-21T09:43:13;9.30;;;5.95;;
80334;SDS011;69653;52.674;13.574;2023-05-21T09:45:55;8.05;;;5.65;;
80334;SDS011;69653;52.674;13.574;2023-05-21T09:53:53;8.10;;;6.38;;
80334;SDS011;69653;52.674;13.574;2023-05-21T09:56:23;9.77;;;5.93;;
80334;SDS011;69653;52.674;13.574;2023-05-21T09:58:50;8.68;;;5.78;;
80334;SDS011;69653;52.674;13.574;2023-05-21T10:01:18;8.32;;;5.75;;
80334;SDS011;69653;52.674;13.574;2023-05-21T10:03:44;8.57;;;5.85;;
80334;SDS011;69653;52.674;13.574;2023-05-21T10:06:14;8.32;;;5.75;;
80334;SDS011;69653;52.674;13.574;2023-05-21T10:08:43;8.23;;;5.65;;
80334;SDS011;69653;52.674;13.574;2023-05-21T10:11:09;9.68;;;5.78;;
80334;SDS011;69653;52.674;13.574;2023-05-21T10:13:37;10.30;;;6.28;;
80334;SDS011;69653;52.674;13.574;2023-05-21T10:16:05;9.52;;;5.85;;
80334;SDS011;69653;52.674;13.574;2023-05-21T10:18:31;10.18;;;5.75;;
80334;SDS011;69653;52.674;13.574;2023-05-21T10:20:56;7.85;;;5.43;;
80334;SDS011;69653;52.674;13.574;2023-05-21T10:23:22;8.25;;;5.70;;
80334;SDS011;69653;52.674;13.574;2023-05-21T10:25:48;7.72;;;5.57;;
80334;SDS011;69653;52.674;13.574;2023-05-21T10:28:15;8.05;;;5.07;;
80334;SDS011;69653;52.674;13.574;2023-05-21T10:30:42;8.27;;;5.65;;
80334;SDS011;69653;52.674;13.574;2023-05-21T10:33:08;9.30;;;5.63;;
80334;SDS011;69653;52.674;13.574;2023-05-21T10:35:36;10.60;;;5.70;;
80334;SDS011;69653;52.674;13.574;2023-05-21T10:38:02;8.02;;;6.65;;
80334;SDS011;69653;52.674;13.574;2023-05-21T10:40:28;8.90;;;5.95;;
80334;SDS011;69653;52.674;13.574;2023-05-21T10:43:03;7.97;;;5.53;;
80334;SDS011;69653;52.674;13.574;2023-05-21T10:48:22;7.45;;;5.88;;
80334;SDS011;69653;52.674;13.574;2023-05-21T10:53:56;7.68;;;5.88;;
80334;SDS011;69653;52.674;13.574;2023-05-21T10:57:08;7.68;;;6.05;;
80334;SDS011;69653;52.674;13.574;2023-05-21T10:59:42;9.40;;;5.68;;
80334;SDS011;69653;52.674;13.574;2023-05-21T11:02:10;8.98;;;6.00;;
80334;SDS011;69653;52.674;13.574;2023-05-21T11:04:38;8.32;;;5.50;;
80334;SDS011;69653;52.674;13.574;2023-05-21T11:07:06;10.10;;;5.68;;
80334;SDS011;69653;52.674;13.574;2023-05-21T11:09:32;9.55;;;5.88;;
80334;SDS011;69653;52.674;13.574;2023-05-21T11:11:57;8.70;;;6.30;;
80334;SDS011;69653;52.674;13.574;2023-05-21T11:14:24;8.57;;;5.63;;
80334;SDS011;69653;52.674;13.574;2023-05-21T11:16:50;7.80;;;5.30;;
80334;SDS011;69653;52.674;13.574;2023-05-21T11:19:15;7.33;;;5.27;;
80334;SDS011;69653;52.674;13.574;2023-05-21T11:21:41;8.40;;;5.90;;
80334;SDS011;69653;52.674;13.574;2023-05-21T11:24:06;9.63;;;5.67;;
80334;SDS011;69653;52.674;13.574;2023-05-21T11:29:14;8.98;;;5.65;;
80334;SDS011;69653;52.674;13.574;2023-05-21T11:31:57;8.35;;;5.05;;
80334;SDS011;69653;52.674;13.574;2023-05-21T11:34:31;9.48;;;5.22;;
80334;SDS011;69653;52.674;13.574;2023-05-21T11:39:49;8.93;;;5.00;;
80334;SDS011;69653;52.674;13.574;2023-05-21T11:42:36;9.35;;;5.65;;
80334;SDS011;69653;52.674;13.574;2023-05-21T11:45:03;8.02;;;5.10;;
80334;SDS011;69653;52.674;13.574;2023-05-21T11:47:29;8.38;;;4.90;;
80334;SDS011;69653;52.674;13.574;2023-05-21T11:49:57;7.20;;;5.07;;
80334;SDS011;69653;52.674;13.574;2023-05-21T11:52:24;8.23;;;5.25;;
80334;SDS011;69653;52.674;13.574;2023-05-21T11:54:53;6.80;;;4.63;;
80334;SDS011;69653;52.674;13.574;2023-05-21T11:57:28;10.43;;;4.95;;
80334;SDS011;69653;52.674;13.574;2023-05-21T11:59:57;14.70;;;4.72;;
80334;SDS011;69653;52.674;13.574;2023-05-21T12:02:31;9.13;;;4.65;;
80334;SDS011;69653;52.674;13.574;2023-05-21T12:04:57;8.13;;;5.07;;
80334;SDS011;69653;52.674;13.574;2023-05-21T12:07:25;6.95;;;4.75;;
80334;SDS011;69653;52.674;13.574;2023-05-21T12:09:52;7.45;;;4.18;;
80334;SDS011;69653;52.674;13.574;2023-05-21T12:12:18;7.20;;;4.82;;
80334;SDS011;69653;52.674;13.574;2023-05-21T12:14:47;8.68;;;4.40;;
80334;SDS011;69653;52.674;13.574;2023-05-21T12:17:23;7.43;;;4.88;;
80334;SDS011;69653;52.674;13.574;2023-05-21T12:19:50;7.05;;;4.50;;
80334;SDS011;69653;52.674;13.574;2023-05-21T12:22:17;8.07;;;4.32;;
80334;SDS011;69653;52.674;13.574;2023-05-21T12:24:43;6.90;;;4.30;;
80334;SDS011;69653;52.674;13.574;2023-05-21T12:27:09;9.63;;;4.70;;
80334;SDS011;69653;52.674;13.574;2023-05-21T12:29:37;7.63;;;3.97;;
80334;SDS011;69653;52.674;13.574;2023-05-21T12:32:05;9.55;;;4.18;;
80334;SDS011;69653;52.674;13.574;2023-05-21T12:34:38;7.93;;;4.63;;
80334;SDS011;69653;52.674;13.574;2023-05-21T12:37:10;5.22;;;4.20;;
80334;SDS011;69653;52.674;13.574;2023-05-21T12:39:59;7.63;;;4.82;;
80334;SDS011;69653;52.674;13.574;2023-05-21T12:42:29;6.70;;;4.05;;
80334;SDS011;69653;52.674;13.574;2023-05-21T12:44:58;6.90;;;4.15;;
80334;SDS011;69653;52.674;13.574;2023-05-21T12:47:24;7.95;;;4.22;;
80334;SDS011;69653;52.674;13.574;2023-05-21T12:49:57;6.60;;;4.50;;
80334;SDS011;69653;52.674;13.574;2023-05-21T12:52:23;6.47;;;4.25;;
80334;SDS011;69653;52.674;13.574;2023-05-21T12:54:50;7.85;;;4.75;;
80334;SDS011;69653;52.674;13.574;2023-05-21T12:57:20;5.93;;;4.57;;
80334;SDS011;69653;52.674;13.574;2023-05-21T12:59:50;7.50;;;4.60;;
80334;SDS011;69653;52.674;13.574;2023-05-21T13:04:53;7.95;;;5.20;;
80334;SDS011;69653;52.674;13.574;2023-05-21T13:07:20;6.47;;;4.18;;
80334;SDS011;69653;52.674;13.574;2023-05-21T13:09:46;9.00;;;4.63;;
80334;SDS011;69653;52.674;13.574;2023-05-21T13:12:11;7.37;;;4.90;;
80334;SDS011;69653;52.674;13.574;2023-05-21T13:14:37;6.10;;;4.20;;
80334;SDS011;69653;52.674;13.574;2023-05-21T13:17:02;6.82;;;4.35;;
80334;SDS011;69653;52.674;13.574;2023-05-21T13:19:28;6.07;;;3.87;;
80334;SDS011;69653;52.674;13.574;2023-05-21T13:21:53;6.90;;;4.53;;
80334;SDS011;69653;52.674;13.574;2023-05-21T13:24:18;7.10;;;3.90;;
80334;SDS011;69653;52.674;13.574;2023-05-21T13:26:43;6.83;;;4.17;;
80334;SDS011;69653;52.674;13.574;2023-05-21T13:29:09;8.13;;;4.80;;
80334;SDS011;69653;52.674;13.574;2023-05-21T13:31:34;6.55;;;4.22;;
80334;SDS011;69653;52.674;13.574;2023-05-21T13:34:00;6.60;;;4.07;;
80334;SDS011;69653;52.674;13.574;2023-05-21T13:36:25;5.60;;;3.80;;
80334;SDS011;69653;52.674;13.574;2023-05-21T13:38:50;6.37;;;4.00;;
80334;SDS011;69653;52.674;13.574;2023-05-21T13:41:16;7.07;;;3.67;;
80334;SDS011;69653;52.674;13.574;2023-05-21T13:43:41;9.30;;;4.80;;
80334;SDS011;69653;52.674;13.574;2023-05-21T13:46:07;6.97;;;3.78;;
80334;SDS011;69653;52.674;13.574;2023-05-21T13:48:32;7.78;;;3.80;;
80334;SDS011;69653;52.674;13.574;2023-05-21T13:50:58;7.67;;;3.77;;
80334;SDS011;69653;52.674;13.574;2023-05-21T13:53:23;7.00;;;4.00;;
80334;SDS011;69653;52.674;13.574;2023-05-21T13:55:48;7.23;;;3.87;;
80334;SDS011;69653;52.674;13.574;2023-05-21T13:58:14;6.43;;;4.07;;
80334;SDS011;69653;52.674;13.574;2023-05-21T14:00:39;6.73;;;4.27;;
80334;SDS011;69653;52.674;13.574;2023-05-21T14:03:06;8.30;;;4.40;;
80334;SDS011;69653;52.674;13.574;2023-05-21T14:05:33;8.50;;;4.30;;
80334;SDS011;69653;52.674;13.574;2023-05-21T14:07:59;6.30;;;4.15;;
80334;SDS011;69653;52.674;13.574;2023-05-21T14:10:24;7.23;;;4.00;;
80334;SDS011;69653;52.674;13.574;2023-05-21T14:12:49;7.73;;;4.03;;
80334;SDS011;69653;52.674;13.574;2023-05-21T14:15:15;6.32;;;3.90;;
80334;SDS011;69653;52.674;13.574;2023-05-21T14:17:41;7.97;;;4.50;;
80334;SDS011;69653;52.674;13.574;2023-05-21T14:20:06;6.27;;;4.10;;
80334;SDS011;69653;52.674;13.574;2023-05-21T14:22:32;6.55;;;3.63;;
80334;SDS011;69653;52.674;13.574;2023-05-21T14:24:57;7.10;;;3.93;;
80334;SDS011;69653;52.674;13.574;2023-05-21T14:27:22;6.40;;;3.77;;
80334;SDS011;69653;52.674;13.574;2023-05-21T14:29:48;8.23;;;4.10;;
80334;SDS011;69653;52.674;13.574;2023-05-21T14:32:13;5.53;;;3.60;;
80334;SDS011;69653;52.674;13.574;2023-05-21T14:34:38;5.80;;;3.93;;
80334;SDS011;69653;52.674;13.574;2023-05-21T14:37:05;7.88;;;4.30;;
80334;SDS011;69653;52.674;13.574;2023-05-21T14:39:30;9.70;;;4.05;;
80334;SDS011;69653;52.674;13.574;2023-05-21T14:41:55;7.70;;;4.53;;